Time;durP1;ratioP1;P1;durP2;ratioP2;P2;SDS_P1;SDS_P2;PMS_P1;PMS_P2;Temp;Humidity;BMP_temperature;BMP_pressure;BME280_temperature;BME280_humidity;BME280_pressure;Samples;Min_cycle;Max_cycle;Signal;HPM_P1;HPM_P2
2021/05/28 00:00:30;;;;;;;19.63;11.50;;;;;;;14.41;100.00;94522.75;10416055;28;20628;-86
2021/05/28 00:05:30;;;;;;;16.30;11.85;;;;;;;14.24;100.00;94519.88;10416136;28;20025;-86
2021/05/28 00:10:31;;;;;;;21.15;11.98;;;;;;;14.26;100.00;94512.25;10415769;28;20033;-85
2021/05/28 00:15:33;;;;;;;14.73;9.98;;;;;;;14.24;100.00;94509.06;10415070;28;20035;-85
2021/05/28 00:20:33;;;;;;;24.92;11.32;;;;;;;14.13;100.00;94509.25;10415575;28;20816;-85
2021/05/28 00:25:33;;;;;;;18.70;11.20;;;;;;;14.16;100.00;94507.84;10449525;28;20186;-85
2021/05/28 00:30:34;;;;;;;16.90;10.80;;;;;;;14.12;100.00;94496.88;10456231;28;20037;-86
2021/05/28 00:35:34;;;;;;;18.23;10.75;;;;;;;14.05;100.00;94491.06;10455992;28;20057;-86
2021/05/28 00:40:35;;;;;;;24.33;12.77;;;;;;;13.84;100.00;94477.94;10455865;28;20488;-85
2021/05/28 00:45:35;;;;;;;24.93;10.93;;;;;;;13.93;100.00;94452.94;10455479;28;20264;-85
2021/05/28 00:50:36;;;;;;;15.05;11.23;;;;;;;13.88;100.00;94442.22;10455040;28;20279;-85
2021/05/28 00:55:36;;;;;;;19.40;10.93;;;;;;;13.85;100.00;94436.31;10454262;28;20566;-85
2021/05/28 01:00:36;;;;;;;16.45;11.75;;;;;;;13.88;100.00;94429.50;10448846;28;20287;-86
2021/05/28 01:05:37;;;;;;;19.60;12.23;;;;;;;13.84;100.00;94433.91;10453506;28;20032;-86
2021/05/28 01:10:37;;;;;;;19.50;12.37;;;;;;;13.96;100.00;94434.22;10447678;28;20268;-85
2021/05/28 01:15:40;;;;;;;16.88;11.02;;;;;;;13.92;100.00;94435.13;10454076;28;20802;-86
2021/05/28 01:20:41;;;;;;;33.05;13.13;;;;;;;13.83;100.00;94443.16;10453107;28;20024;-85
2021/05/28 01:25:41;;;;;;;24.83;12.43;;;;;;;13.77;100.00;94447.84;10453168;28;20045;-85
2021/05/28 01:30:42;;;;;;;19.73;12.75;;;;;;;13.83;100.00;94443.94;10454086;28;20873;-85
2021/05/28 01:35:42;;;;;;;19.77;11.53;;;;;;;13.90;100.00;94446.22;10452353;28;20455;-86
2021/05/28 01:40:42;;;;;;;19.63;12.50;;;;;;;13.78;100.00;94449.44;10454498;28;20337;-85
2021/05/28 01:45:43;;;;;;;26.33;13.00;;;;;;;13.81;100.00;94454.25;10452935;28;21126;-85
2021/05/28 01:50:44;;;;;;;18.65;14.10;;;;;;;13.60;100.00;94455.72;10452047;28;20377;-85
2021/05/28 01:55:45;;;;;;;23.52;14.35;;;;;;;13.29;100.00;94440.84;10452682;28;20476;-85
2021/05/28 02:00:51;;;;;;;27.80;17.90;;;;;;;13.29;100.00;94448.16;10451692;28;20032;-85
2021/05/28 02:05:52;;;;;;;31.08;18.15;;;;;;;13.21;100.00;94438.84;10452718;28;20467;-85
2021/05/28 02:10:53;;;;;;;34.45;19.60;;;;;;;13.15;100.00;94445.44;10451330;28;20118;-85
2021/05/28 02:15:53;;;;;;;29.73;16.23;;;;;;;13.32;100.00;94452.97;10452645;28;20112;-85
2021/05/28 02:20:54;;;;;;;29.27;17.60;;;;;;;13.52;100.00;94451.00;10453520;28;20033;-85
2021/05/28 02:25:54;;;;;;;28.83;17.20;;;;;;;13.62;100.00;94440.03;10452332;28;20052;-86
2021/05/28 02:30:54;;;;;;;28.90;17.93;;;;;;;13.55;100.00;94428.81;10453520;28;20279;-86
2021/05/28 02:35:55;;;;;;;30.07;17.50;;;;;;;13.64;100.00;94429.72;10451501;28;20037;-85
2021/05/28 02:40:55;;;;;;;33.38;17.75;;;;;;;13.71;100.00;94410.44;10451770;28;20036;-85
2021/05/28 02:45:56;;;;;;;24.85;14.82;;;;;;;13.77;100.00;94420.00;10451973;28;20115;-85
2021/05/28 02:50:57;;;;;;;16.98;11.88;;;;;;;13.59;100.00;94413.63;10448090;28;20029;-85
2021/05/28 02:55:57;;;;;;;28.13;11.83;;;;;;;13.49;100.00;94420.84;10450710;28;20024;-85
2021/05/28 03:00:58;;;;;;;25.30;12.73;;;;;;;13.49;100.00;94428.13;10453363;28;20036;-86
2021/05/28 03:05:58;;;;;;;21.35;11.95;;;;;;;13.52;100.00;94424.81;10450948;28;20017;-77
2021/05/28 03:10:59;;;;;;;23.20;11.95;;;;;;;13.64;100.00;94422.41;10443174;28;20040;-77
2021/05/28 03:16:00;;;;;;;19.33;11.43;;;;;;;13.73;100.00;94440.63;10442630;28;20029;-77
2021/05/28 03:26:36;;;;;;;19.65;12.68;;;;;;;13.86;100.00;94458.75;10414367;28;20574;-77
2021/05/28 03:31:36;;;;;;;19.27;13.00;;;;;;;13.84;100.00;94458.22;10441240;28;20183;-77
2021/05/28 03:36:36;;;;;;;25.50;13.60;;;;;;;13.97;100.00;94441.22;10442372;28;20032;-77
2021/05/28 03:41:37;;;;;;;22.30;13.40;;;;;;;14.07;100.00;94442.91;10442326;28;20032;-78
2021/05/28 03:46:37;;;;;;;18.98;13.20;;;;;;;14.03;100.00;94441.91;10442130;28;20275;-78
2021/05/28 03:51:38;;;;;;;24.13;13.40;;;;;;;14.00;100.00;94478.44;10441342;28;20036;-78
2021/05/28 03:56:39;;;;;;;31.15;13.60;;;;;;;14.06;100.00;94492.66;10441716;28;20737;-78
2021/05/28 04:01:39;;;;;;;28.98;13.43;;;;;;;13.86;100.00;94499.25;10440924;28;20112;-77
2021/05/28 04:06:40;;;;;;;20.17;13.40;;;;;;;13.95;100.00;94491.25;10431362;28;20025;-78
2021/05/28 04:11:40;;;;;;;25.92;17.13;;;;;;;14.12;100.00;94496.03;10420864;28;20278;-78
2021/05/28 04:16:41;;;;;;;42.10;21.83;;;;;;;14.33;100.00;94485.59;10439604;28;20554;-79
2021/05/28 04:21:41;;;;;;;32.10;21.17;;;;;;;14.58;100.00;94465.34;10440943;28;20040;-78
2021/05/28 04:26:42;;;;;;;34.22;20.15;;;;;;;14.80;100.00;94453.75;10445329;28;20304;-78
2021/05/28 04:31:42;;;;;;;27.23;17.83;;;;;;;14.92;100.00;94452.44;10447918;28;20094;-77
2021/05/28 04:36:42;;;;;;;24.43;14.83;;;;;;;14.78;100.00;94449.78;10425184;28;20124;-77
2021/05/28 04:41:43;;;;;;;23.15;13.95;;;;;;;14.86;100.00;94457.16;10407049;28;20038;-77
2021/05/28 04:46:44;;;;;;;24.88;14.40;;;;;;;15.01;100.00;94464.94;10404693;28;20485;-77
2021/05/28 04:51:44;;;;;;;18.67;13.18;;;;;;;15.10;100.00;94456.03;10406260;28;20033;-79
2021/05/28 04:56:44;;;;;;;18.93;11.63;;;;;;;15.32;100.00;94444.41;10406392;28;20045;-78
2021/05/28 05:01:45;;;;;;;14.93;10.60;;;;;;;15.53;100.00;94444.66;10405139;28;20717;-78
2021/05/28 05:06:45;;;;;;;19.60;12.38;;;;;;;15.47;100.00;94451.34;10408891;28;20340;-78
2021/05/28 05:11:46;;;;;;;17.57;10.93;;;;;;;15.66;100.00;94461.94;10427310;28;20040;-78
2021/05/28 05:16:46;;;;;;;22.02;12.18;;;;;;;16.08;100.00;94462.44;10445220;28;20048;-78
2021/05/28 05:21:47;;;;;;;17.00;12.17;;;;;;;16.18;100.00;94464.84;10444304;28;20120;-78
2021/05/28 05:26:49;;;;;;;20.45;13.40;;;;;;;16.21;100.00;94477.81;10443767;28;20488;-78
2021/05/28 05:31:50;;;;;;;18.50;11.68;;;;;;;16.18;100.00;94474.91;10444356;28;20048;-78
2021/05/28 05:36:51;;;;;;;32.67;13.60;;;;;;;16.54;100.00;94477.38;10444765;28;20037;-78
2021/05/28 05:41:51;;;;;;;24.58;12.23;;;;;;;17.46;100.00;94483.75;10445388;28;20036;-78
2021/05/28 05:46:51;;;;;;;19.13;11.10;;;;;;;18.12;100.00;94485.31;10444409;28;20028;-78
2021/05/28 05:51:52;;;;;;;21.95;9.77;;;;;;;18.18;100.00;94483.22;10443414;28;20033;-78
2021/05/28 05:56:52;;;;;;;20.30;10.50;;;;;;;18.42;100.00;94480.69;10443978;28;20040;-79
2021/05/28 06:01:52;;;;;;;11.90;6.73;;;;;;;18.75;100.00;94481.91;10428696;28;20065;-79
2021/05/28 06:06:53;;;;;;;14.07;8.20;;;;;;;19.30;100.00;94482.81;10401781;28;20033;-79
2021/05/28 06:11:55;;;;;;;14.15;6.60;;;;;;;21.16;100.00;94479.00;10429946;28;20033;-78
2021/05/28 06:16:55;;;;;;;11.95;5.03;;;;;;;21.97;100.00;94480.00;10445410;28;20397;-79
2021/05/28 06:21:56;;;;;;;11.25;4.78;;;;;;;23.78;97.04;94473.78;10444526;28;20032;-79
2021/05/28 06:26:57;;;;;;;14.75;3.72;;;;;;;24.03;91.92;94466.81;10444740;28;20123;-79
2021/05/28 06:31:57;;;;;;;9.73;3.80;;;;;;;24.73;83.58;94464.81;10443362;28;20028;-79
2021/05/28 06:36:58;;;;;;;15.00;3.57;;;;;;;25.74;75.98;94462.53;10444178;28;20197;-79
2021/05/28 06:41:59;;;;;;;10.90;2.90;;;;;;;26.03;70.73;94460.09;10444145;28;20075;-79
2021/05/28 06:47:00;;;;;;;5.10;2.50;;;;;;;26.31;63.30;94462.28;10443510;28;20522;-79
2021/05/28 06:52:00;;;;;;;5.88;2.20;;;;;;;24.75;74.70;94456.19;10442209;28;20286;-79
2021/05/28 06:57:01;;;;;;;5.65;2.50;;;;;;;24.25;85.57;94455.41;10441423;28;20029;-79
2021/05/28 07:02:02;;;;;;;13.02;2.33;;;;;;;24.05;87.60;94452.72;10440450;28;20033;-79
2021/05/28 07:07:02;;;;;;;5.90;2.83;;;;;;;26.25;69.90;94445.31;10442583;28;20025;-79
2021/05/28 07:12:03;;;;;;;11.50;3.83;;;;;;;27.30;59.92;94440.47;10442200;28;20457;-79
2021/05/28 07:17:04;;;;;;;5.10;2.58;;;;;;;27.54;59.06;94438.22;10441366;28;20025;-77
2021/05/28 07:22:05;;;;;;;5.45;2.00;;;;;;;27.77;53.19;94435.91;10442451;28;20029;-77
2021/05/28 07:27:05;;;;;;;9.50;2.22;;;;;;;27.51;56.92;94436.22;10442917;28;20045;-77
2021/05/28 07:32:06;;;;;;;4.30;1.93;;;;;;;26.20;53.54;94436.63;10443075;28;20090;-78
2021/05/28 07:37:06;;;;;;;7.57;3.10;;;;;;;26.84;51.71;94436.31;10443525;28;20132;-78
2021/05/28 07:42:07;;;;;;;7.13;2.63;;;;;;;24.50;68.20;94440.13;10442950;28;20150;-77
2021/05/28 07:47:07;;;;;;;7.10;3.95;;;;;;;25.79;59.95;94445.69;10442636;28;20027;-78
2021/05/28 07:52:08;;;;;;;3.67;3.27;;;;;;;24.13;67.76;94456.41;10442927;28;20021;-78
2021/05/28 07:57:09;;;;;;;9.35;5.05;;;;;;;22.39;76.48;94471.28;10442090;28;20287;-78
2021/05/28 08:02:09;;;;;;;7.53;4.63;;;;;;;20.96;88.63;94471.81;10448922;28;20025;-78
2021/05/28 08:07:09;;;;;;;6.60;5.00;;;;;;;20.22;100.00;94471.84;10450949;28;20422;-78
2021/05/28 08:12:10;;;;;;;13.40;5.63;;;;;;;20.09;100.00;94476.50;10450065;28;20039;-78
2021/05/28 08:17:10;;;;;;;8.93;5.20;;;;;;;19.88;100.00;94487.53;10449998;28;20481;-78
2021/05/28 08:22:11;;;;;;;6.38;4.93;;;;;;;19.69;100.00;94499.72;10450354;28;20271;-78
2021/05/28 08:27:11;;;;;;;12.30;5.37;;;;;;;19.99;100.00;94510.50;10448143;28;20066;-78
2021/05/28 08:32:11;;;;;;;10.50;5.67;;;;;;;19.68;100.00;94519.16;10448843;28;20291;-78
2021/05/28 08:37:12;;;;;;;14.00;5.87;;;;;;;19.26;100.00;94531.69;10449903;28;20031;-78
2021/05/28 08:42:12;;;;;;;13.30;9.33;;;;;;;17.85;100.00;94551.78;10449600;28;20056;-78
2021/05/28 08:47:15;;;;;;;18.50;11.10;;;;;;;17.16;100.00;94567.03;10448666;28;20032;-78
2021/05/28 08:52:16;;;;;;;20.60;13.32;;;;;;;16.75;100.00;94586.09;10448951;28;20480;-77
2021/05/28 08:57:19;;;;;;;20.52;14.75;;;;;;;16.42;100.00;94593.03;10448715;28;20024;-78
2021/05/28 09:02:40;;;;;;;19.38;15.77;;;;;;;14.91;100.00;94619.38;10446613;28;20025;-78
2021/05/28 09:07:52;;;;;;;23.25;16.95;;;;;;;14.77;100.00;94632.94;10448529;28;20025;-78
2021/05/28 09:12:53;;;;;;;32.67;17.00;;;;;;;14.53;100.00;94638.53;10447616;28;20112;-77
2021/05/28 09:17:54;;;;;;;27.13;18.52;;;;;;;14.19;100.00;94647.78;10447693;28;20029;-80
2021/05/28 09:23:19;;;;;;;28.40;20.73;;;;;;;14.07;100.00;94669.91;10446466;28;20404;-77
2021/05/28 09:28:19;;;;;;;34.40;21.67;;;;;;;13.96;100.00;94671.19;10441170;28;20447;-77
2021/05/28 09:33:21;;;;;;;27.35;18.25;;;;;;;13.83;100.00;94670.84;10447110;28;20090;-77
2021/05/28 09:38:24;;;;;;;26.83;17.98;;;;;;;13.87;100.00;94672.94;10445023;28;20158;-77
2021/05/28 09:43:26;;;;;;;23.70;17.08;;;;;;;13.47;100.00;94676.00;10445785;28;20419;-77
2021/05/28 09:48:31;;;;;;;26.95;17.83;;;;;;;12.98;100.00;94672.59;10445564;28;20032;-77
2021/05/28 09:53:34;;;;;;;30.70;19.45;;;;;;;12.85;100.00;94684.91;10446406;28;20024;-77
2021/05/28 09:58:54;;;;;;;32.30;20.25;;;;;;;13.04;100.00;94682.22;10445772;28;20021;-78
2021/05/28 10:04:08;;;;;;;36.38;21.52;;;;;;;12.77;100.00;94682.84;10445547;28;20078;-77
2021/05/28 10:09:11;;;;;;;40.03;23.85;;;;;;;12.89;100.00;94691.28;10445491;28;20128;-77
2021/05/28 10:14:12;;;;;;;36.38;23.48;;;;;;;12.95;100.00;94702.84;10410180;28;20055;-77
2021/05/28 10:19:12;;;;;;;30.95;21.23;;;;;;;13.03;100.00;94699.47;10403842;28;20029;-77
2021/05/28 10:24:13;;;;;;;32.65;23.00;;;;;;;12.84;100.00;94699.47;10401861;28;20654;-77
2021/05/28 10:29:14;;;;;;;25.77;19.70;;;;;;;12.71;100.00;94694.75;10400863;28;20033;-77
2021/05/28 10:34:14;;;;;;;31.30;21.13;;;;;;;12.73;100.00;94692.59;10400781;28;20268;-78
2021/05/28 10:39:18;;;;;;;34.33;22.30;;;;;;;12.80;100.00;94682.25;10401079;28;20029;-78
2021/05/28 10:44:21;;;;;;;26.52;19.42;;;;;;;12.88;100.00;94695.09;10402291;28;20029;-78
2021/05/28 10:49:52;;;;;;;24.55;16.98;;;;;;;12.99;100.00;94698.44;10431251;28;20035;-78
2021/05/28 10:54:55;;;;;;;22.05;14.95;;;;;;;12.91;100.00;94685.63;10441688;28;20037;-78
2021/05/28 10:59:57;;;;;;;16.63;12.05;;;;;;;13.04;100.00;94690.31;10442300;28;20143;-78
2021/05/28 11:04:58;;;;;;;15.07;11.50;;;;;;;13.09;100.00;94682.16;10441599;28;20459;-78
2021/05/28 11:09:59;;;;;;;17.38;11.80;;;;;;;13.24;100.00;94681.16;10441322;28;20032;-78
2021/05/28 11:15:02;;;;;;;15.63;9.40;;;;;;;13.30;100.00;94671.09;10441874;28;20020;-78
2021/05/28 11:20:06;;;;;;;14.57;9.60;;;;;;;13.50;100.00;94678.91;10442397;28;20271;-78
2021/05/28 11:25:14;;;;;;;16.55;11.70;;;;;;;13.57;100.00;94681.22;10441874;28;20385;-78
2021/05/28 11:30:23;;;;;;;26.95;11.00;;;;;;;13.62;100.00;94678.47;10441923;28;20515;-78
2021/05/28 11:35:25;;;;;;;18.65;13.80;;;;;;;13.65;100.00;94690.59;10446564;28;20036;-77
2021/05/28 11:40:44;;;;;;;26.45;15.65;;;;;;;13.66;100.00;94684.88;10449329;28;20063;-77
2021/05/28 11:45:47;;;;;;;;;;;;;;;13.75;100.00;94682.31;10449642;28;20083;-78
2021/05/28 11:50:58;;;;;;;22.15;14.38;;;;;;;13.24;100.00;94672.22;10449903;28;19913;-78
2021/05/28 11:55:58;;;;;;;24.88;14.95;;;;;;;13.12;100.00;94692.34;10449655;28;20082;-77
2021/05/28 12:01:00;;;;;;;21.27;15.40;;;;;;;13.13;100.00;94693.97;10448934;28;20130;-77
2021/05/28 12:06:06;;;;;;;19.40;14.23;;;;;;;12.71;100.00;94690.19;10448408;28;20024;-77
2021/05/28 12:11:08;;;;;;;20.35;13.48;;;;;;;12.59;100.00;94693.25;10449123;28;20043;-77
2021/05/28 12:16:11;;;;;;;19.40;14.65;;;;;;;12.41;100.00;94705.59;10447719;28;20029;-77
2021/05/28 12:21:17;;;;;;;24.00;15.75;;;;;;;12.30;100.00;94712.94;10448746;28;20044;-77
2021/05/28 12:26:23;;;;;;;28.70;16.25;;;;;;;12.65;100.00;94720.97;10446295;28;20048;-78
2021/05/28 12:31:29;;;;;;;18.27;12.65;;;;;;;13.02;100.00;94705.16;10448122;28;20052;-77
2021/05/28 12:36:32;;;;;;;15.63;12.65;;;;;;;13.23;100.00;94706.53;10447255;28;20021;-77
2021/05/28 12:41:34;;;;;;;17.52;13.07;;;;;;;13.26;100.00;94692.44;10448031;28;20349;-78
2021/05/28 12:46:38;;;;;;;17.50;12.55;;;;;;;13.26;100.00;94694.34;10446610;28;20028;-77
2021/05/28 12:51:49;;;;;;;24.15;12.52;;;;;;;13.46;100.00;94693.28;10447449;28;20029;-78
2021/05/28 12:56:51;;;;;;;19.02;12.30;;;;;;;13.99;100.00;94682.19;10447317;28;20029;-78
2021/05/28 13:01:53;;;;;;;19.75;10.85;;;;;;;14.23;100.00;94677.75;10447475;28;20629;-77
2021/05/28 13:06:54;;;;;;;15.35;9.20;;;;;;;14.24;100.00;94682.06;10446253;28;20032;-78
2021/05/28 13:12:05;;;;;;;16.70;10.95;;;;;;;14.10;100.00;94680.13;10446827;28;20025;-78
2021/05/28 13:17:26;;;;;;;19.30;13.82;;;;;;;14.00;100.00;94672.19;10442498;28;20428;-78
2021/05/28 13:22:36;;;;;;;17.20;13.02;;;;;;;14.13;100.00;94670.63;10449423;28;20104;-78
2021/05/28 13:27:36;;;;;;;21.17;12.85;;;;;;;13.65;100.00;94677.88;10443839;28;20049;-77
2021/05/28 13:32:38;;;;;;;18.73;12.27;;;;;;;13.81;100.00;94667.66;10446047;28;20504;-78
2021/05/28 13:37:39;;;;;;;17.20;11.70;;;;;;;13.70;100.00;94666.19;10444028;28;20805;-77
2021/05/28 13:42:45;;;;;;;16.55;13.07;;;;;;;13.77;100.00;94658.53;10444523;28;20032;-78
2021/05/28 13:47:45;;;;;;;15.68;12.73;;;;;;;13.90;100.00;94659.66;10445591;28;20488;-77
2021/05/28 13:52:46;;;;;;;18.90;12.13;;;;;;;13.76;100.00;94662.31;10443491;28;20040;-78
2021/05/28 13:57:46;;;;;;;20.00;13.50;;;;;;;14.15;100.00;94665.72;10443547;28;20025;-77
2021/05/28 14:02:46;;;;;;;22.13;12.47;;;;;;;14.70;100.00;94654.19;10443984;28;20033;-77
2021/05/28 14:07:47;;;;;;;19.48;10.85;;;;;;;14.97;100.00;94661.50;10443670;28;20658;-77
2021/05/28 14:12:47;;;;;;;15.55;10.13;;;;;;;14.81;100.00;94657.50;10444616;28;20087;-78
2021/05/28 14:17:48;;;;;;;20.37;11.83;;;;;;;14.79;100.00;94659.69;10443698;28;20032;-77
2021/05/28 14:22:51;;;;;;;18.73;11.18;;;;;;;14.76;100.00;94658.38;10419713;28;20758;-77
2021/05/28 14:27:53;;;;;;;12.23;9.27;;;;;;;14.61;100.00;94664.06;10401858;28;20045;-78
2021/05/28 14:32:54;;;;;;;14.23;10.38;;;;;;;14.77;100.00;94659.97;10401538;28;20029;-78
2021/05/28 14:37:55;;;;;;;13.18;9.20;;;;;;;14.49;100.00;94654.53;10400626;28;20064;-78
2021/05/28 14:42:56;;;;;;;12.63;9.77;;;;;;;14.46;100.00;94647.03;10401487;28;20454;-78
2021/05/28 14:47:56;;;;;;;14.75;9.15;;;;;;;14.60;100.00;94662.47;10400546;28;20053;-78
2021/05/28 14:52:57;;;;;;;23.03;11.13;;;;;;;15.09;100.00;94668.28;10400072;28;20112;-78
2021/05/28 14:57:57;;;;;;;14.90;10.07;;;;;;;15.55;100.00;94687.03;10407158;28;20288;-78
2021/05/28 15:02:57;;;;;;;13.85;8.80;;;;;;;15.67;100.00;94670.25;10400921;28;20108;-78
2021/05/28 15:07:58;;;;;;;16.77;9.40;;;;;;;15.72;100.00;94683.66;10420076;28;20041;-78
2021/05/28 15:12:59;;;;;;;11.02;8.75;;;;;;;15.95;100.00;94669.34;10435589;28;20024;-78
2021/05/28 15:17:59;;;;;;;15.27;9.68;;;;;;;15.86;100.00;94682.84;10441494;28;20024;-78
2021/05/28 15:23:00;;;;;;;17.83;10.30;;;;;;;15.69;100.00;94686.19;10438692;28;20159;-78
2021/05/28 15:28:00;;;;;;;13.30;10.57;;;;;;;15.55;100.00;94686.22;10438825;28;20380;-78
2021/05/28 15:33:01;;;;;;;17.00;10.97;;;;;;;15.43;100.00;94691.38;10438690;28;20056;-78
2021/05/28 15:38:02;;;;;;;14.02;10.20;;;;;;;15.26;100.00;94700.13;10440673;28;20054;-78
2021/05/28 15:43:08;;;;;;;18.25;11.00;;;;;;;14.94;100.00;94707.28;10441077;28;20029;-78
2021/05/28 15:48:10;;;;;;;17.42;10.70;;;;;;;14.75;100.00;94699.25;10441349;28;20014;-78
2021/05/28 15:53:14;;;;;;;21.90;11.13;;;;;;;14.68;100.00;94696.97;10440383;28;20560;-78
2021/05/28 15:58:16;;;;;;;15.55;11.45;;;;;;;14.75;100.00;94696.56;10441336;28;20491;-78
2021/05/28 16:03:17;;;;;;;15.75;11.73;;;;;;;14.75;100.00;94691.16;10441444;28;20032;-79
2021/05/28 16:08:18;;;;;;;23.38;14.85;;;;;;;14.79;100.00;94692.97;10425473;28;20025;-78
2021/05/28 16:13:18;;;;;;;27.83;12.82;;;;;;;14.66;100.00;94685.63;10420203;28;20515;-78
2021/05/28 16:18:19;;;;;;;18.95;11.88;;;;;;;14.35;100.00;94705.09;10432237;28;20025;-78
2021/05/28 16:23:19;;;;;;;17.63;12.65;;;;;;;14.34;100.00;94700.78;10409322;28;20040;-78
2021/05/28 16:28:22;;;;;;;14.20;12.00;;;;;;;14.44;100.00;94708.75;10407202;28;20053;-79
2021/05/28 16:33:22;;;;;;;18.27;12.75;;;;;;;14.26;100.00;94706.88;10406995;28;20778;-78
2021/05/28 16:38:23;;;;;;;21.53;13.57;;;;;;;14.36;100.00;94722.94;10406638;28;20033;-78
2021/05/28 16:43:23;;;;;;;16.10;13.13;;;;;;;14.48;100.00;94728.69;10406457;28;20820;-78
2021/05/28 16:48:24;;;;;;;22.60;12.30;;;;;;;14.39;100.00;94725.03;10406337;28;20041;-79
2021/05/28 16:53:26;;;;;;;17.55;12.60;;;;;;;14.26;100.00;94723.09;10407229;28;20039;-78
2021/05/28 16:58:27;;;;;;;15.02;11.75;;;;;;;13.91;100.00;94723.41;10449748;28;20021;-78
2021/05/28 17:03:28;;;;;;;16.85;12.77;;;;;;;13.37;100.00;94730.94;10414353;28;20067;-78
2021/05/28 17:08:28;;;;;;;15.65;12.90;;;;;;;13.36;100.00;94723.91;10426867;28;20099;-78
2021/05/28 17:13:28;;;;;;;17.38;13.00;;;;;;;13.11;100.00;94723.13;10442964;28;20041;-78
2021/05/28 17:18:31;;;;;;;20.10;13.27;;;;;;;13.07;100.00;94715.91;10440408;28;20134;-80
2021/05/28 17:23:31;;;;;;;17.63;12.63;;;;;;;13.02;100.00;94722.19;10445649;28;20495;-82
2021/05/28 17:28:32;;;;;;;19.20;12.75;;;;;;;12.86;100.00;94736.94;10447915;28;20048;-80
2021/05/28 17:33:32;;;;;;;18.35;13.32;;;;;;;12.91;100.00;94734.19;10445880;28;20094;-80
2021/05/28 17:38:34;;;;;;;24.45;14.85;;;;;;;12.88;100.00;94734.72;10443326;28;20025;-82
2021/05/28 17:43:34;;;;;;;18.27;14.07;;;;;;;12.71;100.00;94737.91;10422803;28;20033;-81
2021/05/28 17:48:35;;;;;;;23.48;15.57;;;;;;;12.69;100.00;94735.50;10443589;28;20021;-80
2021/05/28 17:53:35;;;;;;;23.15;15.55;;;;;;;12.72;100.00;94732.22;10447393;28;20100;-80
2021/05/28 17:58:35;;;;;;;23.73;14.85;;;;;;;12.75;100.00;94737.03;10443869;28;20025;-79
2021/05/28 18:03:36;;;;;;;24.17;16.17;;;;;;;12.60;100.00;94745.28;10444650;28;20028;-79
2021/05/28 18:08:36;;;;;;;22.67;16.30;;;;;;;12.55;100.00;94748.06;10440626;28;20271;-79
2021/05/28 18:13:37;;;;;;;23.67;16.83;;;;;;;12.25;100.00;94739.97;10443877;28;20104;-79
2021/05/28 18:18:37;;;;;;;30.50;17.50;;;;;;;12.08;100.00;94742.25;10442513;28;20028;-80
2021/05/28 18:23:38;;;;;;;21.67;15.93;;;;;;;11.95;100.00;94746.41;10442829;28;20032;-81
2021/05/28 18:28:38;;;;;;;24.20;17.63;;;;;;;12.02;100.00;94752.28;10443259;28;20074;-79
2021/05/28 18:33:39;;;;;;;24.17;16.52;;;;;;;11.88;100.00;94748.59;10442363;28;20485;-78
2021/05/28 18:38:40;;;;;;;23.95;15.85;;;;;;;11.92;100.00;94749.66;10440531;28;20128;-78
2021/05/28 18:43:41;;;;;;;20.23;15.25;;;;;;;11.89;100.00;94750.19;10440628;28;20028;-77
2021/05/28 18:48:41;;;;;;;21.00;15.60;;;;;;;11.81;100.00;94754.28;10440165;28;20048;-77
2021/05/28 18:53:43;;;;;;;23.17;14.97;;;;;;;11.77;100.00;94774.78;10441234;28;20648;-78
2021/05/28 18:58:46;;;;;;;21.33;14.50;;;;;;;11.95;100.00;94776.84;10441029;28;20203;-78
2021/05/28 19:03:46;;;;;;;18.63;12.82;;;;;;;11.82;100.00;94784.69;10420804;28;20028;-81
2021/05/28 19:08:47;;;;;;;19.23;12.75;;;;;;;11.76;100.00;94792.84;10437842;28;20028;-78
2021/05/28 19:13:48;;;;;;;19.67;13.98;;;;;;;11.87;100.00;94793.56;10410091;28;20167;-79
2021/05/28 19:18:49;;;;;;;18.15;12.55;;;;;;;11.90;100.00;94792.19;10402359;28;20067;-78
2021/05/28 19:23:49;;;;;;;17.17;11.75;;;;;;;11.89;100.00;94793.28;10399652;28;20137;-78
2021/05/28 19:28:50;;;;;;;15.75;10.27;;;;;;;11.96;100.00;94793.81;10402371;28;20064;-78
2021/05/28 19:33:51;;;;;;;14.38;10.95;;;;;;;11.88;100.00;94799.75;10403966;28;20060;-80
2021/05/28 19:38:51;;;;;;;13.25;11.05;;;;;;;11.84;100.00;94798.72;10405048;28;20017;-80
2021/05/28 19:43:53;;;;;;;14.23;11.57;;;;;;;11.69;100.00;94819.25;10404388;28;20532;-80
2021/05/28 19:48:55;;;;;;;15.45;11.93;;;;;;;11.58;100.00;94809.59;10418544;28;20025;-80
2021/05/28 19:55:41;;;;;;;17.05;11.43;;;;;;;11.60;100.00;94816.34;10445655;28;20025;-80
2021/05/28 19:59:21;;;;;;;16.15;12.48;;;;;;;11.47;100.00;94816.94;10454898;28;20040;-80
2021/05/28 20:04:22;;;;;;;17.73;11.43;;;;;;;11.45;100.00;94817.19;10444733;28;20908;-80
2021/05/28 20:09:22;;;;;;;14.77;11.45;;;;;;;11.37;100.00;94803.53;10437838;28;20092;-80
2021/05/28 20:14:26;;;;;;;12.77;10.27;;;;;;;11.33;100.00;94797.09;10415525;28;20093;-83
2021/05/28 20:19:27;;;;;;;13.25;10.30;;;;;;;11.41;100.00;94791.97;10417011;28;20280;-83
2021/05/28 20:24:27;;;;;;;14.35;10.38;;;;;;;11.42;100.00;94788.16;10414036;28;20048;-83
2021/05/28 20:29:28;;;;;;;11.93;8.98;;;;;;;11.52;100.00;94798.06;10422674;28;20036;-83
2021/05/28 20:34:29;;;;;;;10.40;9.30;;;;;;;11.55;100.00;94788.63;10415039;28;20021;-84
2021/05/28 20:39:29;;;;;;;10.90;8.13;;;;;;;11.62;100.00;94781.88;10415530;28;20029;-83
2021/05/28 20:44:29;;;;;;;11.93;7.93;;;;;;;11.71;100.00;94778.59;10415702;28;20026;-84
2021/05/28 20:49:30;;;;;;;8.80;7.80;;;;;;;11.74;100.00;94795.00;10414308;28;20029;-84
2021/05/28 20:54:43;;;;;;;10.32;6.72;;;;;;;11.81;100.00;94783.91;10413917;28;20721;-84
2021/05/28 20:59:44;;;;;;;9.48;6.53;;;;;;;11.90;100.00;94789.50;10413671;28;20025;-84
2021/05/28 21:04:50;;;;;;;12.70;7.70;;;;;;;11.96;100.00;94794.59;10415014;28;20025;-84
2021/05/28 21:09:51;;;;;;;16.83;7.00;;;;;;;11.96;100.00;94801.91;10412830;28;20315;-83
2021/05/28 21:14:52;;;;;;;6.88;5.93;;;;;;;11.96;100.00;94802.69;10410198;28;20129;-83
2021/05/28 21:19:52;;;;;;;6.38;5.70;;;;;;;11.99;100.00;94801.31;10406144;28;20021;-83
2021/05/28 21:24:53;;;;;;;11.60;5.77;;;;;;;11.99;100.00;94797.81;10411474;28;20046;-83
2021/05/28 21:29:53;;;;;;;9.10;5.63;;;;;;;11.99;100.00;94795.94;10413782;28;20064;-84
2021/05/28 21:34:53;;;;;;;6.07;5.43;;;;;;;11.95;100.00;94801.06;10414164;28;20743;-83
2021/05/28 21:39:54;;;;;;;7.90;6.20;;;;;;;11.93;100.00;94805.09;10414378;28;20758;-83
2021/05/28 21:44:56;;;;;;;8.07;5.90;;;;;;;11.91;100.00;94799.19;10412922;28;20272;-84
2021/05/28 21:49:57;;;;;;;8.65;6.70;;;;;;;11.91;100.00;94796.50;10413792;28;20468;-83
2021/05/28 21:55:00;;;;;;;10.65;6.32;;;;;;;11.95;100.00;94797.59;10412475;28;20133;-83
2021/05/28 22:00:00;;;;;;;9.48;5.63;;;;;;;12.05;100.00;94802.88;10412186;28;20439;-83
2021/05/28 22:05:02;;;;;;;8.40;5.50;;;;;;;12.18;100.00;94792.56;10413100;28;20022;-83
2021/05/28 22:10:08;;;;;;;7.00;5.43;;;;;;;12.27;100.00;94786.28;10412417;28;20063;-83
2021/05/28 22:15:09;;;;;;;6.78;6.10;;;;;;;12.35;100.00;94794.84;10408716;28;20068;-82
2021/05/28 22:20:11;;;;;;;8.15;6.18;;;;;;;12.27;100.00;94804.34;10409130;28;20071;-83
2021/05/28 22:25:11;;;;;;;6.45;5.82;;;;;;;12.24;100.00;94813.00;10411121;28;20048;-83
2021/05/28 22:35:34;;;;;;;8.85;6.13;;;;;;;12.12;100.00;94816.84;10408185;28;20021;-83
2021/05/28 22:40:34;;;;;;;8.63;6.40;;;;;;;12.12;100.00;94822.22;10409152;28;20032;-82
2021/05/28 22:45:44;;;;;;;6.20;5.60;;;;;;;12.13;100.00;94817.66;10409286;28;20117;-83
2021/05/28 22:51:03;;;;;;;9.75;6.20;;;;;;;12.14;100.00;94812.00;10407749;28;20112;-83